Time;durP1;ratioP1;P1;durP2;ratioP2;P2;SDS_P1;SDS_P2;PMS_P1;PMS_P2;Temp;Humidity;BMP_temperature;BMP_pressure;BME280_temperature;BME280_humidity;BME280_pressure;Samples;Min_cycle;Max_cycle;Signal;HPM_P1;HPM_P2
2021/05/23 00:02:18;;;;;;;;;0.00;0.00;;;;;12.50;58.89;100806.75;5004579;28;70925;-58
2021/05/23 00:04:44;;;;;;;;;0.00;0.00;;;;;12.46;59.00;100800.06;5000043;28;45551;-59
2021/05/23 00:07:09;;;;;;;;;0.00;0.00;;;;;12.43;59.19;100805.63;4990033;28;45462;-59
2021/05/23 00:09:36;;;;;;;;;0.00;0.00;;;;;12.41;59.57;100808.38;5001548;28;48200;-59
2021/05/23 00:12:02;;;;;;;;;0.00;0.00;;;;;12.35;59.38;100811.53;4987086;28;45744;-59
2021/05/23 00:14:27;;;;;;;;;0.00;0.00;;;;;12.30;59.79;100817.19;5005189;28;45544;-58
2021/05/23 00:16:52;;;;;;;;;0.00;0.00;;;;;12.26;59.75;100817.56;5004596;28;60762;-58
2021/05/23 00:19:18;;;;;;;;;0.00;0.00;;;;;12.20;60.07;100815.44;5005050;28;46715;-58
2021/05/23 00:21:43;;;;;;;;;0.00;0.00;;;;;12.15;60.22;100815.81;5007888;28;48718;-58
2021/05/23 00:24:09;;;;;;;;;0.00;0.00;;;;;12.16;60.14;100829.81;5008288;28;45309;-59
2021/05/23 00:26:35;;;;;;;;;0.00;0.00;;;;;12.16;60.39;100822.78;5019777;28;45352;-59
2021/05/23 00:29:00;;;;;;;;;0.00;0.00;;;;;12.16;59.84;100828.03;5012112;28;45678;-59
2021/05/23 00:31:26;;;;;;;;;0.00;0.00;;;;;12.14;59.87;100824.69;5003785;28;46513;-59
2021/05/23 00:33:51;;;;;;;;;0.00;0.00;;;;;12.13;60.18;100824.81;5001290;28;66950;-58
2021/05/23 00:36:16;;;;;;;;;0.00;0.00;;;;;12.09;60.11;100825.09;4998857;28;64237;-60
2021/05/23 00:38:44;;;;;;;;;3.00;3.00;;;;;12.08;59.90;100830.47;5003126;28;54410;-59
2021/05/23 00:41:09;;;;;;;;;0.00;0.00;;;;;12.06;60.20;100825.31;5000806;28;46108;-58
2021/05/23 00:43:35;;;;;;;;;0.00;0.00;;;;;12.04;60.43;100829.88;5007553;28;68418;-59
2021/05/23 00:46:00;;;;;;;;;0.00;0.00;;;;;12.04;60.01;100829.88;4999969;28;58188;-59
2021/05/23 00:48:26;;;;;;;;;0.00;0.00;;;;;12.05;60.73;100834.19;5009562;28;45329;-59
2021/05/23 00:50:52;;;;;;;;;0.00;0.00;;;;;12.01;60.44;100830.13;5010573;28;45367;-59
2021/05/23 00:53:17;;;;;;;;;0.00;0.00;;;;;11.97;60.48;100833.97;5012105;28;45470;-59
2021/05/23 00:55:42;;;;;;;;;0.00;0.00;;;;;11.98;60.33;100837.44;5016451;28;51975;-59
2021/05/23 00:58:08;;;;;;;;;0.00;0.00;;;;;12.01;60.43;100831.94;5001236;28;59149;-59
2021/05/23 01:00:39;;;;;;;;;0.00;0.00;;;;;12.05;60.68;100833.34;5015346;28;47608;-59
2021/05/23 01:03:24;;;;;;;;;0.00;0.00;;;;;12.07;60.47;100834.91;5015874;28;45335;-59
2021/05/23 01:05:50;;;;;;;;;0.00;0.00;;;;;12.11;60.24;100828.41;5002925;28;45324;-59
2021/05/23 01:08:15;;;;;;;;;0.00;0.00;;;;;12.11;60.52;100827.56;5005653;28;45461;-59
2021/05/23 01:11:08;;;;;;;;;0.00;0.00;;;;;12.15;60.42;100826.34;5003718;28;45464;-59
2021/05/23 01:13:33;;;;;;;;;0.00;0.00;;;;;12.22;60.07;100832.78;5017421;28;45279;-58
2021/05/23 01:15:59;;;;;;;;;0.00;0.00;;;;;12.24;60.55;100828.22;5023635;28;45292;-58
2021/05/23 01:18:25;;;;;;;;;0.00;0.00;;;;;12.27;59.98;100833.25;5015134;28;45448;-59
2021/05/23 01:20:51;;;;;;;;;0.00;0.00;;;;;12.32;59.69;100838.13;5008066;28;47372;-59
2021/05/23 01:23:19;;;;;;;;;0.00;0.00;;;;;12.35;59.69;100829.13;5006701;28;45386;-59
2021/05/23 01:25:45;;;;;;;;;0.00;0.00;;;;;12.36;59.54;100823.75;5003908;28;45527;-59
2021/05/23 01:28:11;;;;;;;;;0.00;0.00;;;;;12.36;59.61;100831.66;5017939;28;45205;-59
2021/05/23 01:30:36;;;;;;;;;0.00;0.00;;;;;12.38;59.39;100835.00;5011636;28;66407;-59
2021/05/23 01:33:03;;;;;;;;;0.00;0.00;;;;;12.38;59.26;100832.34;5010181;28;45494;-59
2021/05/23 01:35:33;;;;;;;;;0.00;0.00;;;;;12.41;59.65;100836.53;4990341;28;45424;-59
2021/05/23 01:38:00;;;;;;;;;0.00;0.00;;;;;12.43;59.55;100838.06;5007013;28;45408;-59
2021/05/23 01:40:31;;;;;;;;;0.00;0.00;;;;;12.45;59.13;100841.41;5009607;28;46171;-60
2021/05/23 01:42:56;;;;;;;;;0.00;0.00;;;;;12.47;59.31;100846.56;5007409;28;45293;-59
2021/05/23 01:45:22;;;;;;;;;0.00;0.00;;;;;12.49;59.21;100844.63;4999092;28;45483;-60
2021/05/23 01:47:47;;;;;;;;;0.00;0.00;;;;;12.48;58.78;100842.94;5007470;28;45477;-59
2021/05/23 01:50:13;;;;;;;;;0.00;0.00;;;;;12.47;58.99;100843.91;5008655;28;73685;-59
2021/05/23 01:52:56;;;;;;;;;0.00;0.00;;;;;12.44;59.08;100837.13;5007773;28;45398;-60
2021/05/23 01:55:22;;;;;;;;;0.00;0.00;;;;;12.49;59.07;100849.88;5010637;28;45317;-59
2021/05/23 01:57:47;;;;;;;;;0.00;0.00;;;;;12.50;58.69;100846.28;5008860;28;45301;-59
2021/05/23 02:00:14;;;;;;;;;0.00;0.00;;;;;12.50;58.42;100838.38;5004301;28;45474;-59
2021/05/23 02:02:39;;;;;;;;;0.00;0.00;;;;;12.48;58.62;100837.66;5012678;28;45323;-59
2021/05/23 02:05:05;;;;;;;;;0.00;0.00;;;;;12.49;58.99;100847.25;5007037;28;54699;-59
2021/05/23 02:07:31;;;;;;;;;0.00;0.00;;;;;12.50;58.69;100841.88;5007995;28;45166;-60
2021/05/23 02:09:57;;;;;;;;;0.00;0.00;;;;;12.50;58.64;100848.91;5001869;28;68562;-59
2021/05/23 02:12:22;;;;;;;;;0.00;0.00;;;;;12.50;58.40;100851.56;4988407;28;45357;-58
2021/05/23 02:14:48;;;;;;;;;0.00;0.00;;;;;12.49;58.70;100853.34;4980652;28;68513;-59
2021/05/23 02:17:13;;;;;;;;;0.00;0.00;;;;;12.51;58.54;100853.25;5004358;28;45447;-59
2021/05/23 02:19:39;;;;;;;;;0.00;0.00;;;;;12.50;58.35;100847.13;4991844;28;65691;-59
2021/05/23 02:22:04;;;;;;;;;0.00;0.00;;;;;12.48;58.41;100853.47;5013574;28;59424;-58
2021/05/23 02:24:29;;;;;;;;;0.00;0.00;;;;;12.49;58.39;100858.63;5020554;28;48006;-59
2021/05/23 02:26:55;;;;;;;;;0.00;0.00;;;;;12.49;58.43;100850.72;5022267;28;51937;-59
2021/05/23 02:29:20;;;;;;;;;0.00;0.00;;;;;12.48;58.44;100856.97;5037024;28;66118;-58
2021/05/23 02:31:45;;;;;;;;;0.00;0.00;;;;;12.50;58.27;100855.03;5010636;28;67337;-60
2021/05/23 02:34:11;;;;;;;;;0.00;0.00;;;;;12.48;58.38;100859.59;5006231;28;61620;-58
2021/05/23 02:36:36;;;;;;;;;0.00;0.00;;;;;12.48;58.39;100862.25;4993686;28;53779;-59
2021/05/23 02:39:02;;;;;;;;;0.00;0.00;;;;;12.47;58.48;100859.72;5005756;28;58257;-58
2021/05/23 02:41:27;;;;;;;;;0.00;0.00;;;;;12.45;58.51;100864.28;4992997;28;45262;-59
2021/05/23 02:43:52;;;;;;;;;0.00;0.00;;;;;12.41;58.63;100868.97;5009791;28;62569;-59
2021/05/23 02:46:18;;;;;;;;;0.00;0.00;;;;;12.43;58.36;100864.41;5011235;28;61920;-60
2021/05/23 02:48:43;;;;;;;;;0.00;0.00;;;;;12.46;58.55;100876.47;4990052;28;71729;-59
2021/05/23 02:51:09;;;;;;;;;0.00;0.00;;;;;12.45;58.66;100864.28;5011475;28;45436;-59
2021/05/23 02:53:34;;;;;;;;;0.00;0.00;;;;;12.46;58.48;100871.22;5007743;28;46040;-59
2021/05/23 02:55:59;;;;;;;;;0.00;0.00;;;;;12.46;58.84;100868.56;5012030;28;45414;-59
2021/05/23 02:58:25;;;;;;;;;0.00;0.00;;;;;12.46;58.69;100872.06;5007505;28;45795;-59
2021/05/23 03:00:50;;;;;;;;;0.00;0.00;;;;;12.43;58.34;100868.84;5002305;28;45133;-59
2021/05/23 03:03:16;;;;;;;;;0.00;0.00;;;;;12.42;58.73;100872.44;5003361;28;45966;-59
2021/05/23 03:05:41;;;;;;;;;0.00;0.00;;;;;12.45;58.72;100872.19;5010986;28;61464;-59
2021/05/23 03:08:07;;;;;;;;;0.00;0.00;;;;;12.45;58.53;100870.38;5006957;28;46270;-59
2021/05/23 03:10:44;;;;;;;;;0.00;0.00;;;;;12.46;58.57;100874.69;5013145;28;45382;-59
2021/05/23 03:13:10;;;;;;;;;0.00;0.00;;;;;12.44;58.46;100875.75;5002570;28;45181;-59
2021/05/23 03:15:35;;;;;;;;;0.00;0.00;;;;;12.44;58.44;100878.41;5002268;28;45386;-59
2021/05/23 03:18:02;;;;;;;;;0.00;0.00;;;;;12.42;58.61;100880.31;5001591;28;45439;-59
2021/05/23 03:20:28;;;;;;;;;0.00;0.00;;;;;12.41;58.75;100882.13;5018740;28;45291;-59
2021/05/23 03:22:55;;;;;;;;;0.00;0.00;;;;;12.40;59.05;100883.09;5014929;28;45276;-59
2021/05/23 03:25:20;;;;;;;;;0.00;0.00;;;;;12.34;59.62;100883.63;5013179;28;45563;-60
2021/05/23 03:27:46;;;;;;;;;0.00;0.00;;;;;12.34;59.74;100888.88;5012462;28;46356;-59
2021/05/23 03:30:14;;;;;;;;;0.00;0.00;;;;;12.31;59.32;100889.97;5021406;28;49648;-59
2021/05/23 03:32:39;;;;;;;;;0.00;0.00;;;;;12.30;59.74;100882.19;5019417;28;45255;-60
2021/05/23 03:35:06;;;;;;;;;0.00;0.00;;;;;12.28;59.81;100881.47;5007037;28;45445;-60
2021/05/23 03:37:31;;;;;;;;;0.00;0.00;;;;;12.28;59.65;100884.13;5009542;28;46153;-60
2021/05/23 03:39:56;;;;;;;;;0.00;0.00;;;;;12.28;59.76;100884.94;5006190;28;45525;-59
2021/05/23 03:42:22;;;;;;;;;0.00;0.00;;;;;12.29;59.88;100893.69;5004792;28;45768;-59
2021/05/23 03:44:47;;;;;;;;;0.00;0.00;;;;;12.30;60.30;100887.47;5009390;28;46863;-59
2021/05/23 03:47:12;;;;;;;;;0.00;0.00;;;;;12.31;60.13;100889.16;5005443;28;67209;-59
2021/05/23 03:49:38;;;;;;;;;0.00;0.00;;;;;12.32;60.06;100898.72;5005098;28;60924;-59
2021/05/23 03:52:05;;;;;;;;;0.00;0.00;;;;;12.31;60.09;100902.31;5005188;28;45422;-59
2021/05/23 03:54:31;;;;;;;;;0.00;0.00;;;;;12.34;60.09;100902.06;5009133;28;45588;-59
2021/05/23 03:56:56;;;;;;;;;0.00;0.00;;;;;12.34;59.71;100906.50;5005648;28;45615;-58
2021/05/23 03:59:21;;;;;;;;;0.00;0.00;;;;;12.32;60.56;100911.88;5015880;28;63145;-58
2021/05/23 04:01:47;;;;;;;;;0.00;0.00;;;;;12.33;60.21;100908.25;5003629;28;66160;-58
2021/05/23 04:04:12;;;;;;;;;0.00;0.00;;;;;12.34;60.21;100911.75;5016698;28;60445;-59
2021/05/23 04:06:37;;;;;;;;;0.00;0.00;;;;;12.33;60.50;100916.16;5005945;28;46374;-59
2021/05/23 04:09:03;;;;;;;;;0.00;0.00;;;;;12.31;60.62;100912.84;4999973;28;70116;-60
2021/05/23 04:11:36;;;;;;;;;0.00;0.00;;;;;12.31;60.21;100916.31;5015865;28;45433;-60
2021/05/23 04:14:01;;;;;;;;;0.00;0.00;;;;;12.30;60.76;100906.72;5019791;28;45712;-59
2021/05/23 04:16:26;;;;;;;;;0.00;0.00;;;;;12.35;60.42;100916.88;5015847;28;46034;-59
2021/05/23 04:18:52;;;;;;;;;0.00;0.00;;;;;12.31;60.43;100912.84;5011727;28;64602;-59
2021/05/23 04:21:18;;;;;;;;;0.00;0.00;;;;;12.28;60.75;100918.34;5007529;28;68737;-59
2021/05/23 04:23:43;;;;;;;;;0.00;0.00;;;;;12.23;61.00;100915.28;5017133;28;45461;-59
2021/05/23 04:26:08;;;;;;;;;0.00;0.00;;;;;12.19;60.83;100919.13;5008113;28;46176;-59
2021/05/23 04:28:34;;;;;;;;;0.00;0.00;;;;;12.13;61.21;100919.59;5003846;28;53621;-59
2021/05/23 04:30:59;;;;;;;;;0.00;0.00;;;;;12.09;61.84;100919.88;5000795;28;55282;-59
2021/05/23 04:33:25;;;;;;;;;0.00;0.00;;;;;12.01;61.79;100917.00;5001489;28;45336;-59
2021/05/23 04:35:50;;;;;;;;;0.00;0.00;;;;;11.96;61.95;100929.69;4993349;28;48510;-59
2021/05/23 04:38:16;;;;;;;;;0.00;0.00;;;;;11.87;62.18;100925.97;5010502;28;45314;-60
2021/05/23 04:40:41;;;;;;;;;0.00;0.00;;;;;11.82;62.74;100932.59;5003568;28;64743;-59
2021/05/23 04:43:06;;;;;;;;;0.00;0.00;;;;;11.80;62.54;100931.88;5004695;28;45655;-60
2021/05/23 04:45:32;;;;;;;;;0.00;0.00;;;;;11.84;62.79;100931.50;5003308;28;65253;-59
2021/05/23 04:47:57;;;;;;;;;0.00;0.00;;;;;11.82;62.92;100949.19;5003818;28;45400;-59
2021/05/23 04:50:22;;;;;;;;;0.00;0.00;;;;;11.86;63.15;100936.66;5003389;28;65378;-59
2021/05/23 04:52:48;;;;;;;;;0.00;0.00;;;;;11.89;63.03;100944.31;5012212;28;59594;-58
2021/05/23 04:55:13;;;;;;;;;0.00;0.00;;;;;11.86;63.20;100953.25;5002993;28;67989;-59
2021/05/23 04:57:39;;;;;;;;;0.00;0.00;;;;;11.85;62.92;100951.56;5002212;28;45598;-59
2021/05/23 05:00:06;;;;;;;;;0.00;0.00;;;;;11.90;62.98;100954.72;5004988;28;45372;-59
2021/05/23 05:02:31;;;;;;;;;0.00;0.00;;;;;11.90;62.49;100949.47;5021595;28;45684;-59
2021/05/23 05:04:57;;;;;;;;;0.00;0.00;;;;;11.98;62.75;100959.38;5011096;28;66560;-59
2021/05/23 05:07:22;;;;;;;;;0.00;0.00;;;;;11.90;62.94;100965.25;5014677;28;65297;-60
2021/05/23 05:09:47;;;;;;;;;0.00;0.00;;;;;11.90;62.69;100965.25;5007519;28;66529;-59
2021/05/23 05:12:13;;;;;;;;;0.00;0.00;;;;;11.93;62.32;100972.06;5022941;28;66618;-60
2021/05/23 05:14:38;;;;;;;;;0.00;0.00;;;;;11.96;62.80;100969.19;5023424;28;46999;-59
2021/05/23 05:17:04;;;;;;;;;0.00;0.00;;;;;11.88;62.77;100966.34;5004023;28;45288;-59
2021/05/23 05:19:29;;;;;;;;;0.00;0.00;;;;;11.83;62.69;100963.19;5014818;28;57930;-59
2021/05/23 05:21:54;;;;;;;;;0.00;0.00;;;;;11.87;62.77;100969.88;5003879;28;55583;-59
2021/05/23 05:24:20;;;;;;;;;0.00;0.00;;;;;11.84;62.83;100976.22;5004564;28;65365;-59
2021/05/23 05:26:45;;;;;;;;;0.00;0.00;;;;;11.90;62.67;100975.78;5032390;28;63130;-59
2021/05/23 05:29:11;;;;;;;;;0.00;0.00;;;;;11.99;62.66;100970.75;5007917;28;45301;-60
2021/05/23 05:31:36;;;;;;;;;0.00;0.00;;;;;12.08;62.68;100986.63;5023291;28;45513;-59
2021/05/23 05:34:02;;;;;;;;;0.00;0.00;;;;;12.13;62.21;100980.16;5014915;28;45296;-59
2021/05/23 05:36:27;;;;;;;;;0.00;0.00;;;;;12.10;62.35;100979.44;4985666;28;45295;-60
2021/05/23 05:38:53;;;;;;;;;0.00;0.00;;;;;12.06;62.41;100990.34;5017914;28;45407;-59
2021/05/23 05:41:19;;;;;;;;;0.00;0.00;;;;;12.11;62.29;100990.81;5019762;28;45315;-59
2021/05/23 05:43:45;;;;;;;;;0.00;0.00;;;;;12.17;62.09;100997.41;5019919;28;45371;-59
2021/05/23 05:46:10;;;;;;;;;0.00;0.00;;;;;12.16;61.95;100979.91;5003147;28;45731;-59
2021/05/23 05:48:35;;;;;;;;;0.00;0.00;;;;;12.32;61.81;100988.25;5009164;28;65671;-60
2021/05/23 05:51:01;;;;;;;;;0.00;0.00;;;;;12.52;61.35;100991.91;5014383;28;62899;-60
2021/05/23 05:53:27;;;;;;;;;0.00;0.00;;;;;12.63;61.14;100999.75;5006557;28;45532;-60
2021/05/23 05:55:52;;;;;;;;;0.00;0.00;;;;;12.63;60.73;100993.66;5002469;28;45308;-60
2021/05/23 05:58:17;;;;;;;;;0.00;0.00;;;;;12.98;60.56;101000.44;5006899;28;61631;-59
2021/05/23 06:00:43;;;;;;;;;0.00;0.00;;;;;13.43;59.46;101000.19;5018498;28;54970;-59
2021/05/23 06:03:08;;;;;;;;;0.00;0.00;;;;;13.74;58.87;100996.56;5017144;28;70721;-60
2021/05/23 06:05:33;;;;;;;;;0.00;0.00;;;;;14.34;58.00;101006.31;5010626;28;70132;-59
2021/05/23 06:07:59;;;;;;;;;0.00;0.00;;;;;15.01;57.12;101007.34;5017307;28;45944;-59
2021/05/23 06:10:24;;;;;;;;;0.00;0.00;;;;;15.72;55.57;100998.94;5003201;28;45170;-58
2021/05/23 06:12:50;;;;;;;;;0.00;0.00;;;;;16.54;53.62;101005.13;5002914;28;46200;-58
2021/05/23 06:15:15;;;;;;;;;0.00;0.00;;;;;16.87;51.55;101012.56;5002491;28;58689;-59
2021/05/23 06:17:41;;;;;;;;;0.00;0.00;;;;;16.46;51.77;101001.56;5006314;28;45288;-60
2021/05/23 06:20:07;;;;;;;;;0.00;0.00;;;;;16.52;51.39;101007.09;5018918;28;45279;-60
2021/05/23 06:22:32;;;;;;;;;0.00;0.00;;;;;16.02;51.49;101012.03;5011797;28;47561;-60
2021/05/23 06:24:57;;;;;;;;;0.25;0.00;;;;;15.72;51.88;101012.19;4994472;28;68459;-59
2021/05/23 06:27:23;;;;;;;;;0.00;0.00;;;;;15.48;52.18;101009.16;5018806;28;45299;-60
2021/05/23 06:29:48;;;;;;;;;0.00;0.00;;;;;15.36;52.63;101011.16;5020777;28;56158;-60
2021/05/23 06:32:14;;;;;;;;;0.00;0.00;;;;;15.44;52.52;101005.13;5021956;28;46172;-60
2021/05/23 06:34:39;;;;;;;;;0.00;0.00;;;;;16.02;52.54;101007.56;5031964;28;64678;-60
2021/05/23 06:37:05;;;;;;;;;0.00;0.00;;;;;17.07;51.06;101013.22;5001648;28;57251;-60
2021/05/23 06:39:30;;;;;;;;;0.00;0.00;;;;;18.23;48.78;101008.34;5017668;28;45297;-60
2021/05/23 06:41:55;;;;;;;;;1.00;1.00;;;;;18.51;47.03;101002.72;5014801;28;47383;-61
2021/05/23 06:44:21;;;;;;;;;0.00;0.00;;;;;19.04;47.38;101009.41;5016394;28;59315;-60
2021/05/23 06:46:46;;;;;;;;;0.00;0.00;;;;;19.81;45.87;101012.41;5015847;28;45342;-60
2021/05/23 06:49:12;;;;;;;;;0.00;0.00;;;;;21.07;44.74;101008.59;5016461;28;51838;-60
2021/05/23 06:51:38;;;;;;;;;0.00;0.00;;;;;22.30;41.29;101001.81;5007697;28;46343;-59
2021/05/23 06:54:03;;;;;;;;;0.00;0.00;;;;;23.09;39.39;101003.59;5016141;28;68252;-59
2021/05/23 06:56:29;;;;;;;;;0.00;0.00;;;;;22.97;37.67;100996.25;5006494;28;45234;-59
2021/05/23 06:58:54;;;;;;;;;0.00;0.00;;;;;23.38;37.56;101009.75;5017686;28;61068;-60
2021/05/23 07:01:20;;;;;;;;;0.00;0.00;;;;;23.84;36.11;101001.13;5004185;28;64803;-59
2021/05/23 07:03:45;;;;;;;;;0.00;0.00;;;;;24.20;35.38;101016.13;5001744;28;45232;-59
2021/05/23 07:06:11;;;;;;;;;0.00;0.00;;;;;24.28;33.32;101009.75;5013127;28;45539;-60
2021/05/23 07:08:36;;;;;;;;;0.00;0.00;;;;;23.73;34.07;101023.94;4989958;28;57167;-58
2021/05/23 07:11:02;;;;;;;;;0.00;0.00;;;;;23.38;34.76;101023.16;5008985;28;45789;-60
2021/05/23 07:13:27;;;;;;;;;0.00;0.00;;;;;23.67;34.99;101023.94;5008002;28;68727;-59
2021/05/23 07:15:53;;;;;;;;;0.00;0.00;;;;;23.74;35.14;101028.31;4996470;28;45409;-60
2021/05/23 07:18:19;;;;;;;;;0.00;0.00;;;;;23.65;35.61;101023.28;5015100;28;45514;-60
2021/05/23 07:20:45;;;;;;;;;0.00;0.00;;;;;23.68;36.04;101021.06;5019427;28;45273;-60
2021/05/23 07:23:10;;;;;;;;;0.00;0.00;;;;;23.77;35.87;101021.75;5005097;28;45344;-60
2021/05/23 07:25:36;;;;;;;;;0.00;0.00;;;;;23.76;36.03;101022.78;5003610;28;45467;-60
2021/05/23 07:28:01;;;;;;;;;0.00;0.00;;;;;23.64;34.81;101019.78;5009861;28;56919;-60
2021/05/23 07:30:26;;;;;;;;;0.00;0.00;;;;;23.67;35.37;101021.25;5017310;28;46461;-61
2021/05/23 07:32:52;;;;;;;;;0.00;0.00;;;;;23.80;35.29;101017.81;5009379;28;68535;-60
2021/05/23 07:35:17;;;;;;;;;0.00;0.00;;;;;23.74;35.27;101016.75;5013458;28;45679;-60
2021/05/23 07:37:43;;;;;;;;;0.00;0.00;;;;;24.16;34.27;101017.56;5018923;28;45256;-60
2021/05/23 07:40:09;;;;;;;;;0.00;0.00;;;;;24.76;33.08;101015.81;5019465;28;62270;-60
2021/05/23 07:42:34;;;;;;;;;0.00;0.00;;;;;24.88;33.79;101017.88;5013847;28;45271;-60
2021/05/23 07:45:00;;;;;;;;;0.00;0.00;;;;;24.96;32.16;101029.25;5004660;28;51044;-60
2021/05/23 07:47:25;;;;;;;;;0.00;0.00;;;;;24.35;32.34;101016.78;5003692;28;45568;-60
2021/05/23 07:49:50;;;;;;;;;0.00;0.00;;;;;24.04;32.04;101029.88;5010602;28;46335;-60
2021/05/23 07:52:16;;;;;;;;;0.00;0.00;;;;;23.38;32.38;101031.19;5016450;28;67082;-60
2021/05/23 07:54:41;;;;;;;;;0.00;0.00;;;;;23.86;32.22;101036.63;5016851;28;45352;-60
2021/05/23 07:57:07;;;;;;;;;0.00;0.00;;;;;24.60;32.54;101031.50;5000395;28;45434;-60
2021/05/23 07:59:33;;;;;;;;;0.00;0.00;;;;;23.85;31.38;101035.00;4983009;28;46157;-60
2021/05/23 08:34:20;;;;;;;;;0.00;0.00;;;;;21.62;34.38;101072.53;5067429;27;45350;-61
2021/05/23 08:36:46;;;;;;;;;0.00;0.00;;;;;21.69;34.56;101068.13;5047119;28;49617;-60
2021/05/23 08:39:11;;;;;;;;;0.00;0.00;;;;;22.04;34.29;101068.38;5032098;28;65779;-58
2021/05/23 08:41:37;;;;;;;;;0.00;0.00;;;;;22.52;33.45;101064.22;5035546;28;53893;-59
2021/05/23 08:44:02;;;;;;;;;0.00;0.00;;;;;22.56;32.86;101062.00;5035439;28;69362;-58
2021/05/23 08:46:29;;;;;;;;;0.00;0.00;;;;;22.73;33.02;101059.91;5034507;28;45236;-62
2021/05/23 08:48:56;;;;;;;;;0.00;0.00;;;;;23.30;32.07;101048.28;5036661;28;45303;-58
2021/05/23 08:51:21;;;;;;;;;0.00;0.00;;;;;23.33;32.26;101047.03;5034999;28;45525;-59
2021/05/23 08:53:47;;;;;;;;;0.00;0.00;;;;;23.22;32.65;101045.72;5035028;28;62340;-58
2021/05/23 08:56:12;;;;;;;;;0.00;0.00;;;;;23.57;31.54;101044.94;5031964;28;71607;-59
2021/05/23 08:58:37;;;;;;;;;0.00;0.00;;;;;23.75;31.59;101053.25;5029426;28;53601;-59
2021/05/23 09:01:03;;;;;;;;;0.00;0.00;;;;;24.55;30.33;101053.59;5034460;28;45330;-59
2021/05/23 09:03:28;;;;;;;;;0.00;0.00;;;;;25.84;29.97;101052.31;5031735;28;52033;-59
2021/05/23 09:05:57;;;;;;;;;0.00;0.00;;;;;28.56;27.17;101044.75;5025552;28;52275;-59
2021/05/23 09:08:27;;;;;;;;;0.00;0.00;;;;;29.54;24.08;101053.28;5033820;28;45394;-59
2021/05/23 09:10:54;;;;;;;;;0.00;0.00;;;;;27.35;24.96;101042.66;5038055;28;45505;-59
2021/05/23 09:13:30;;;;;;;;;0.00;0.00;;;;;25.66;26.94;101044.91;5033048;28;45556;-59
2021/05/23 09:16:02;;;;;;;;;0.00;0.00;;;;;27.11;25.53;101051.59;5034552;28;45380;-59
2021/05/23 09:18:49;;;;;;;;;0.00;0.00;;;;;25.75;26.23;101053.59;5037286;28;45582;-60
2021/05/23 09:21:16;;;;;;;;;0.00;0.00;;;;;27.66;26.48;101045.44;5039577;28;45547;-60
2021/05/23 09:23:55;;;;;;;;;0.00;0.00;;;;;28.72;24.93;101054.03;5029788;28;45473;-61
2021/05/23 09:26:25;;;;;;;;;0.00;0.00;;;;;29.06;23.32;101041.63;5025806;28;45388;-60
2021/05/23 09:28:50;;;;;;;;;0.00;0.00;;;;;29.15;23.89;101050.25;5014477;28;45499;-60
2021/05/23 09:31:18;;;;;;;;;0.00;0.00;;;;;28.52;24.02;101059.75;5030479;28;45295;-60
2021/05/23 09:33:48;;;;;;;;;0.00;0.00;;;;;28.02;24.14;101052.72;5049236;28;45748;-60
2021/05/23 09:36:15;;;;;;;;;0.00;0.00;;;;;27.81;24.57;101062.91;5054820;28;45489;-59
2021/05/23 09:38:49;;;;;;;;;0.00;0.00;;;;;27.04;24.69;101056.19;5054746;28;45306;-59
2021/05/23 09:41:20;;;;;;;;;0.00;0.00;;;;;26.60;26.04;101058.81;5038356;28;45513;-60
2021/05/23 09:43:45;;;;;;;;;0.00;0.00;;;;;26.96;25.34;101066.22;5048464;28;45483;-59
2021/05/23 09:46:11;;;;;;;;;0.00;0.00;;;;;26.36;25.48;101060.38;5023296;28;45318;-60
2021/05/23 09:48:36;;;;;;;;;0.00;0.00;;;;;26.51;24.96;101058.22;5040639;28;46258;-61
2021/05/23 09:51:12;;;;;;;;;0.00;0.00;;;;;30.24;23.15;101057.72;5041001;28;45481;-59
2021/05/23 09:53:38;;;;;;;;;0.00;0.00;;;;;29.67;21.98;101052.19;5040578;28;46298;-59
2021/05/23 09:56:09;;;;;;;;;0.00;0.00;;;;;27.88;23.36;101057.44;5040856;28;45465;-59
2021/05/23 09:58:36;;;;;;;;;0.00;0.00;;;;;30.54;22.83;101056.63;5023251;28;45432;-59
2021/05/23 10:01:02;;;;;;;;;0.00;0.00;;;;;30.36;19.62;101063.09;5040604;28;45612;-60
2021/05/23 10:03:29;;;;;;;;;0.00;0.00;;;;;28.88;22.53;101063.34;5005919;28;46502;-60
2021/05/23 10:05:54;;;;;;;;;0.00;0.00;;;;;31.11;21.27;101061.13;5039119;28;45807;-60
2021/05/23 10:08:20;;;;;;;;;0.00;0.00;;;;;32.37;21.13;101056.75;5041900;28;45594;-60
2021/05/23 10:10:45;;;;;;;;;0.00;0.00;;;;;33.39;19.49;101057.59;5042329;28;45977;-60
2021/05/23 10:13:11;;;;;;;;;0.00;0.00;;;;;34.13;20.04;101058.47;5038921;28;45677;-59
2021/05/23 10:15:39;;;;;;;;;0.00;0.00;;;;;33.48;19.88;101058.72;5038703;28;45474;-60
2021/05/23 10:18:04;;;;;;;;;0.00;0.00;;;;;32.94;18.51;101061.63;5042570;28;45240;-60
2021/05/23 10:20:30;;;;;;;;;0.00;0.00;;;;;31.44;20.29;101062.97;5037071;28;64941;-60
2021/05/23 10:22:57;;;;;;;;;0.00;0.00;;;;;30.29;21.10;101065.94;5023127;28;47215;-59
2021/05/23 10:25:22;;;;;;;;;0.00;0.00;;;;;29.23;21.30;101066.94;5022946;28;45324;-61
2021/05/23 10:27:48;;;;;;;;;0.00;0.00;;;;;27.88;22.11;101072.81;5021459;28;45908;-61
2021/05/23 10:30:15;;;;;;;;;0.00;0.00;;;;;26.76;22.73;101079.00;5005596;28;45551;-60
2021/05/23 10:32:41;;;;;;;;;0.00;0.00;;;;;25.80;24.29;101083.34;5026340;28;45812;-60
2021/05/23 10:35:13;;;;;;;;;0.00;0.00;;;;;25.74;24.55;101073.44;5043168;28;45414;-61
2021/05/23 10:37:39;;;;;;;;;0.00;0.00;;;;;25.04;25.48;101068.53;5039285;28;45615;-62
2021/05/23 10:40:35;;;;;;;;;0.00;0.00;;;;;24.20;25.83;101075.16;5020925;28;45549;-63
2021/05/23 10:43:00;;;;;;;;;0.00;0.00;;;;;23.59;26.78;101078.56;5005630;28;48888;-61
2021/05/23 10:45:31;;;;;;;;;0.00;0.00;;;;;23.89;26.60;101067.63;5023315;28;45301;-62
2021/05/23 10:47:57;;;;;;;;;0.00;0.00;;;;;24.32;26.36;101065.50;4994631;28;45400;-60
2021/05/23 10:50:34;;;;;;;;;0.00;0.00;;;;;24.08;26.54;101063.34;5006574;28;45395;-61
2021/05/23 10:53:00;;;;;;;;;0.00;0.00;;;;;23.57;27.14;101067.19;5022216;28;46608;-62
2021/05/23 10:55:25;;;;;;;;;0.00;0.00;;;;;23.62;27.08;101069.28;5038652;28;45251;-62
2021/05/23 10:57:53;;;;;;;;;0.00;0.00;;;;;23.78;27.38;101071.69;5024740;28;67783;-63
2021/05/23 11:00:22;;;;;;;;;0.00;0.00;;;;;23.75;26.72;101064.00;5019309;28;45205;-63
2021/05/23 11:02:47;;;;;;;;;0.00;0.00;;;;;23.47;27.72;101058.66;5037759;28;46449;-62
2021/05/23 11:05:22;;;;;;;;;0.00;0.00;;;;;23.71;27.90;101058.22;5022551;28;45449;-62
2021/05/23 11:08:00;;;;;;;;;0.00;0.00;;;;;23.51;27.25;101071.47;5021501;28;45370;-63
2021/05/23 11:10:40;;;;;;;;;0.00;0.00;;;;;23.31;28.08;101057.94;5025658;28;45548;-63
2021/05/23 11:13:06;;;;;;;;;0.00;0.00;;;;;23.22;27.99;101059.13;5039066;28;46065;-63
2021/05/23 11:15:43;;;;;;;;;0.00;0.00;;;;;23.16;28.11;101064.44;5040606;28;45341;-62
2021/05/23 11:18:09;;;;;;;;;0.00;0.00;;;;;22.79;28.45;101066.34;5040297;28;45432;-62
2021/05/23 11:20:34;;;;;;;;;0.00;0.00;;;;;22.52;28.63;101058.03;5022904;28;45272;-63
2021/05/23 11:23:02;;;;;;;;;0.00;0.00;;;;;22.49;29.25;101061.13;5039204;28;65494;-63
2021/05/23 11:25:27;;;;;;;;;0.00;0.00;;;;;22.74;29.12;101069.59;5038745;28;45343;-62
2021/05/23 11:28:03;;;;;;;;;0.00;0.00;;;;;22.65;29.26;101047.47;5039872;28;45263;-62
2021/05/23 11:30:39;;;;;;;;;0.00;0.00;;;;;22.31;29.57;101038.28;5040677;28;45288;-62
2021/05/23 11:33:06;;;;;;;;;0.00;0.00;;;;;22.22;29.73;101046.56;5040027;28;45865;-63
2021/05/23 11:35:33;;;;;;;;;0.00;0.00;;;;;22.11;29.78;101045.19;5036954;28;45290;-63
2021/05/23 11:37:58;;;;;;;;;0.00;0.00;;;;;22.00;30.09;101051.03;5040416;28;45352;-63
2021/05/23 11:40:29;;;;;;;;;0.00;0.00;;;;;21.99;30.29;101057.41;5021534;28;46269;-63
2021/05/23 11:42:54;;;;;;;;;0.00;0.00;;;;;22.69;30.18;101048.75;5023046;28;45319;-63
2021/05/23 11:45:23;;;;;;;;;0.00;0.00;;;;;23.88;28.88;101041.81;5041510;28;68571;-63
2021/05/23 11:47:52;;;;;;;;;0.00;0.00;;;;;26.05;27.16;101035.06;5007448;28;45420;-63
2021/05/23 11:50:27;;;;;;;;;0.00;0.00;;;;;27.09;24.74;101032.94;5042005;28;45459;-64
2021/05/23 11:52:59;;;;;;;;;0.00;0.00;;;;;26.94;23.94;101035.97;5045048;28;46211;-63
2021/05/23 11:55:28;;;;;;;;;0.00;0.00;;;;;26.13;24.90;101033.97;5042856;28;45453;-63